createdAt,value
2023-04-16T00:01:02.039Z,75.46
2023-04-16T00:03:32.420Z,75.05
2023-04-16T00:06:03.528Z,74.71
2023-04-16T00:08:34.191Z,74.89
2023-04-16T00:11:06.910Z,74.30
2023-04-16T00:13:37.557Z,74.18
2023-04-16T00:16:08.700Z,74.03
2023-04-16T00:18:39.065Z,74.00
2023-04-16T00:21:09.789Z,73.83
2023-04-16T00:23:40.422Z,73.88
2023-04-16T00:26:11.062Z,73.60
2023-04-16T00:28:45.085Z,73.30
2023-04-16T00:31:16.133Z,73.32
2023-04-16T00:33:47.112Z,73.22
2023-04-16T00:36:17.645Z,72.88
2023-04-16T00:38:48.673Z,72.68
2023-04-16T00:41:19.499Z,72.49
2023-04-16T00:43:51.836Z,72.17
2023-04-16T00:46:23.690Z,71.80
2023-04-16T00:48:56.329Z,71.47
2023-04-16T00:51:28.084Z,71.08
2023-04-16T00:53:59.770Z,70.83
2023-04-16T00:56:34.214Z,70.61
2023-04-16T00:59:05.234Z,70.26
2023-04-16T01:01:37.013Z,69.82
2023-04-16T01:04:11.454Z,70.02
2023-04-16T01:06:45.324Z,69.33
2023-04-16T01:09:18.488Z,69.49
2023-04-16T01:11:52.345Z,69.46
2023-04-16T01:14:23.469Z,69.21
2023-04-16T01:16:55.010Z,68.68
2023-04-16T01:19:26.363Z,68.72
2023-04-16T01:21:57.254Z,68.94
2023-04-16T01:24:28.193Z,68.57
2023-04-16T01:27:01.614Z,68.43
2023-04-16T01:29:33.286Z,68.13
2023-04-16T01:32:04.600Z,68.10
2023-04-16T01:34:37.966Z,68.09
2023-04-16T01:37:08.940Z,68.21
2023-04-16T01:39:39.869Z,68.20
2023-04-16T01:42:11.944Z,67.71
2023-04-16T01:44:42.366Z,67.41
2023-04-16T01:47:12.852Z,67.36
2023-04-16T01:49:49.302Z,67.48
2023-04-16T01:52:21.549Z,67.86
2023-04-16T01:54:52.543Z,67.69
2023-04-16T01:57:26.832Z,67.45
2023-04-16T01:59:57.728Z,67.37
2023-04-16T02:02:30.272Z,67.35
2023-04-16T02:05:01.378Z,67.18
2023-04-16T02:07:32.917Z,67.37
2023-04-16T02:10:04.354Z,67.07
2023-04-16T02:12:37.015Z,66.99
2023-04-16T02:15:08.334Z,66.85
2023-04-16T02:17:39.472Z,66.57
2023-04-16T02:20:12.904Z,67.01
2023-04-16T02:22:57.196Z,66.77
2023-04-16T02:25:39.298Z,66.94
2023-04-16T02:28:11.475Z,66.62
2023-04-16T02:30:44.853Z,66.45
2023-04-16T02:33:17.286Z,66.66
2023-04-16T02:35:59.209Z,66.21
2023-04-16T02:38:30.309Z,66.49
2023-04-16T02:41:00.621Z,65.69
2023-04-16T02:43:32.230Z,65.60
2023-04-16T02:46:02.930Z,65.38
2023-04-16T02:48:34.153Z,64.82
2023-04-16T02:51:05.319Z,64.23
2023-04-16T02:53:36.704Z,64.39
2023-04-16T02:56:10.456Z,64.27
2023-04-16T02:58:41.343Z,63.31
2023-04-16T03:01:12.456Z,63.47
2023-04-16T03:03:43.672Z,63.34
2023-04-16T03:06:14.481Z,63.09
2023-04-16T03:08:45.331Z,62.02
2023-04-16T03:11:15.681Z,61.54
2023-04-16T03:13:46.146Z,61.58
2023-04-16T03:16:17.050Z,60.78
2023-04-16T03:18:47.435Z,60.97
2023-04-16T03:21:20.629Z,61.34
2023-04-16T03:23:51.406Z,62.07
2023-04-16T03:26:22.710Z,61.99
2023-04-16T03:28:53.965Z,61.59
2023-04-16T03:31:26.319Z,61.35
2023-04-16T03:34:01.173Z,61.38
2023-04-16T03:36:32.359Z,60.87
2023-04-16T03:39:03.986Z,59.27
2023-04-16T03:41:35.581Z,59.25
2023-04-16T03:44:07.572Z,58.35
2023-04-16T03:46:39.210Z,57.95
2023-04-16T03:49:10.304Z,59.25
2023-04-16T03:51:40.579Z,59.86
2023-04-16T03:54:11.738Z,58.40
2023-04-16T03:56:43.078Z,58.56
2023-04-16T03:59:13.844Z,58.47
2023-04-16T04:01:44.605Z,58.11
2023-04-16T04:04:16.928Z,58.19
2023-04-16T04:07:22.527Z,57.33
2023-04-16T04:09:56.234Z,56.80
2023-04-16T04:12:27.545Z,55.86
2023-04-16T04:14:58.404Z,53.55
2023-04-16T04:17:31.165Z,53.03
2023-04-16T04:20:02.489Z,52.33
2023-04-16T04:22:35.060Z,53.09
2023-04-16T04:25:06.675Z,53.01
2023-04-16T04:27:38.490Z,52.38
2023-04-16T04:30:10.436Z,51.83
2023-04-16T04:32:42.227Z,51.40
2023-04-16T04:35:13.784Z,52.16
2023-04-16T04:37:45.362Z,51.38
2023-04-16T04:40:21.385Z,51.10
2023-04-16T04:42:53.925Z,50.48
2023-04-16T04:45:28.999Z,48.73
2023-04-16T04:48:02.551Z,48.72
2023-04-16T04:50:33.926Z,48.39
2023-04-16T04:53:10.914Z,48.04
2023-04-16T04:55:42.946Z,47.64
2023-04-16T04:58:14.610Z,47.76
2023-04-16T05:00:46.165Z,48.30
2023-04-16T05:03:22.814Z,48.49
2023-04-16T05:05:54.178Z,47.62
2023-04-16T05:08:25.445Z,47.06
2023-04-16T05:10:57.937Z,47.20
2023-04-16T05:13:29.471Z,47.53
2023-04-16T05:16:01.975Z,47.56
2023-04-16T05:18:34.294Z,46.90
2023-04-16T05:21:05.485Z,46.61
2023-04-16T05:23:39.999Z,47.26
2023-04-16T05:26:12.398Z,46.72
2023-04-16T05:28:43.914Z,47.13
2023-04-16T05:31:14.983Z,47.18
2023-04-16T05:33:49.452Z,47.20
2023-04-16T05:36:20.472Z,46.75
2023-04-16T05:38:51.990Z,46.77
2023-04-16T05:41:25.050Z,46.69
2023-04-16T05:43:56.360Z,46.60
2023-04-16T05:46:27.543Z,46.50
2023-04-16T05:48:58.406Z,45.69
2023-04-16T05:51:29.215Z,46.06
2023-04-16T05:54:00.517Z,46.18
2023-04-16T05:56:34.720Z,47.15
2023-04-16T05:59:09.019Z,47.26
2023-04-16T06:01:41.000Z,47.22
2023-04-16T06:04:12.466Z,46.19
2023-04-16T06:06:44.595Z,46.52
2023-04-16T06:09:15.502Z,45.73
2023-04-16T06:11:47.881Z,45.84
2023-04-16T06:14:19.067Z,46.00
2023-04-16T06:16:50.565Z,46.83
2023-04-16T06:19:24.677Z,47.06
2023-04-16T06:21:56.113Z,46.73
2023-04-16T06:24:26.931Z,47.16
2023-04-16T06:26:58.484Z,47.12
2023-04-16T06:29:40.372Z,46.83
2023-04-16T06:32:15.688Z,46.55
2023-04-16T06:34:47.233Z,46.94
2023-04-16T06:37:18.922Z,48.20
2023-04-16T06:39:50.384Z,47.95
2023-04-16T06:42:22.596Z,48.03
2023-04-16T06:44:54.350Z,47.63
2023-04-16T06:47:25.586Z,47.97
2023-04-16T06:49:56.733Z,47.92
2023-04-16T06:52:28.292Z,48.23
2023-04-16T06:55:00.198Z,48.00
2023-04-16T06:57:31.989Z,47.68
2023-04-16T07:00:02.551Z,48.98
2023-04-16T07:02:34.097Z,49.52
2023-04-16T07:05:05.550Z,49.33
2023-04-16T07:07:37.021Z,49.92
2023-04-16T07:10:09.544Z,50.41
2023-04-16T07:12:41.005Z,50.12
2023-04-16T07:15:12.937Z,50.99
2023-04-16T07:17:44.859Z,51.36
2023-04-16T07:20:15.814Z,51.15
2023-04-16T07:22:47.494Z,49.56
2023-04-16T07:25:18.476Z,50.07
2023-04-16T07:27:49.583Z,49.21
2023-04-16T07:30:21.878Z,49.06
2023-04-16T07:32:54.070Z,49.19
2023-04-16T07:35:25.255Z,48.63
2023-04-16T07:37:56.834Z,49.41
2023-04-16T07:40:27.799Z,48.83
2023-04-16T07:42:59.102Z,48.20
2023-04-16T07:45:29.872Z,49.46
2023-04-16T07:48:00.796Z,48.61
2023-04-16T07:50:31.763Z,49.32
2023-04-16T07:53:02.980Z,49.24
2023-04-16T07:55:35.966Z,48.89
2023-04-16T07:58:08.749Z,48.54
2023-04-16T08:00:39.501Z,49.06
2023-04-16T08:03:11.126Z,49.65
2023-04-16T08:05:42.090Z,50.16
2023-04-16T08:08:13.337Z,51.09
2023-04-16T08:10:44.646Z,51.23
2023-04-16T08:13:15.129Z,52.62
2023-04-16T08:15:45.678Z,53.15
2023-04-16T08:18:16.722Z,53.11
2023-04-16T08:20:47.475Z,53.68
2023-04-16T08:23:18.602Z,53.25
2023-04-16T08:25:51.767Z,53.89
2023-04-16T08:28:25.345Z,53.46
2023-04-16T08:30:56.956Z,53.77
2023-04-16T08:33:28.564Z,54.58
2023-04-16T08:35:59.719Z,53.93
2023-04-16T08:38:30.678Z,54.04
2023-04-16T08:41:07.753Z,54.48
2023-04-16T08:43:40.536Z,54.22
2023-04-16T08:46:13.402Z,54.02
2023-04-16T08:48:47.862Z,53.12
2023-04-16T08:51:19.675Z,52.62
2023-04-16T08:54:04.495Z,53.97
2023-04-16T08:56:38.281Z,54.04
2023-04-16T08:59:09.818Z,53.87
2023-04-16T09:01:42.948Z,54.36
2023-04-16T09:04:13.706Z,55.00
2023-04-16T09:06:45.810Z,54.64
2023-04-16T09:09:18.615Z,54.76
2023-04-16T09:11:53.958Z,54.95
2023-04-16T09:14:28.851Z,55.67
2023-04-16T09:17:02.334Z,56.18
2023-04-16T09:19:34.162Z,55.84
2023-04-16T09:22:05.620Z,56.00
2023-04-16T09:24:36.736Z,56.16
2023-04-16T09:27:08.225Z,56.03
2023-04-16T09:29:41.853Z,56.63
2023-04-16T09:32:16.698Z,56.91
2023-04-16T09:35:02.311Z,56.81
2023-04-16T09:37:34.231Z,56.42
2023-04-16T09:40:06.320Z,56.48
2023-04-16T09:42:38.551Z,56.17
2023-04-16T09:45:13.080Z,56.25
2023-04-16T09:47:45.515Z,55.92
2023-04-16T09:50:19.119Z,56.29
2023-04-16T09:52:52.629Z,55.74
2023-04-16T09:55:29.715Z,56.30
2023-04-16T09:58:02.076Z,56.10
2023-04-16T10:00:33.462Z,56.30
2023-04-16T10:03:10.675Z,56.35
2023-04-16T10:05:43.595Z,56.08
2023-04-16T10:08:15.721Z,56.41
2023-04-16T10:10:47.505Z,55.94
2023-04-16T10:13:18.878Z,55.47
2023-04-16T10:15:50.751Z,55.72
2023-04-16T10:18:23.243Z,55.51
2023-04-16T10:20:55.560Z,55.24
2023-04-16T10:23:27.253Z,55.42
2023-04-16T10:25:58.665Z,55.11
2023-04-16T10:28:30.644Z,55.17
2023-04-16T10:31:07.750Z,55.22
2023-04-16T10:33:44.251Z,55.36
2023-04-16T10:36:16.993Z,55.16
2023-04-16T10:38:49.788Z,55.37
2023-04-16T10:41:24.989Z,55.80
2023-04-16T10:44:10.756Z,55.73
2023-04-16T10:46:43.888Z,56.31
2023-04-16T10:49:22.411Z,56.54
2023-04-16T10:52:13.520Z,56.64
2023-04-16T10:54:44.820Z,57.44
2023-04-16T10:57:20.682Z,58.46
2023-04-16T10:59:51.998Z,59.56
2023-04-16T11:02:24.188Z,60.37
2023-04-16T11:05:00.221Z,60.62
2023-04-16T11:07:37.312Z,60.98
2023-04-16T11:10:09.963Z,60.82
2023-04-16T11:12:43.302Z,61.01
2023-04-16T11:15:20.326Z,61.19
2023-04-16T11:17:53.690Z,61.46
2023-04-16T11:20:29.326Z,62.08
2023-04-16T11:23:00.545Z,62.17
2023-04-16T11:25:34.991Z,62.54
2023-04-16T11:28:05.924Z,62.60
2023-04-16T11:30:38.695Z,62.74
2023-04-16T11:33:12.507Z,62.79
2023-04-16T11:35:44.507Z,62.65
2023-04-16T11:38:15.185Z,62.66
2023-04-16T11:40:46.391Z,62.74
2023-04-16T11:43:20.989Z,63.20
2023-04-16T11:46:16.249Z,62.92
2023-04-16T11:48:57.367Z,62.77
2023-04-16T11:51:28.509Z,62.37
2023-04-16T11:54:00.580Z,62.28
2023-04-16T11:56:34.270Z,62.32
2023-04-16T11:59:14.007Z,62.48
2023-04-16T12:02:08.064Z,62.47
2023-04-16T12:04:39.443Z,62.85
2023-04-16T12:07:15.141Z,63.38
2023-04-16T12:09:46.877Z,63.38
2023-04-16T12:12:32.291Z,63.45
2023-04-16T12:15:05.435Z,63.54
2023-04-16T12:17:38.184Z,63.90
2023-04-16T12:20:14.795Z,63.96
2023-04-16T12:22:50.542Z,64.33
2023-04-16T12:25:22.368Z,64.07
2023-04-16T12:27:56.906Z,64.69
2023-04-16T12:30:28.374Z,64.73
2023-04-16T12:33:22.065Z,64.77
2023-04-16T12:35:53.867Z,64.74
2023-04-16T12:38:26.564Z,64.95
2023-04-16T12:40:59.344Z,65.50
2023-04-16T12:43:31.005Z,66.06
2023-04-16T12:46:04.689Z,66.09
2023-04-16T12:48:36.386Z,65.98
2023-04-16T12:51:07.733Z,66.03
2023-04-16T12:53:38.809Z,65.91
2023-04-16T12:56:09.911Z,66.16
2023-04-16T12:58:41.162Z,66.02
2023-04-16T13:01:13.176Z,66.00
2023-04-16T13:03:46.910Z,66.02
2023-04-16T13:06:18.858Z,66.09
2023-04-16T13:08:52.266Z,65.93
2023-04-16T13:11:23.595Z,66.04
2023-04-16T13:13:54.875Z,66.03
2023-04-16T13:16:28.698Z,66.05
2023-04-16T13:19:00.364Z,66.15
2023-04-16T13:21:31.426Z,66.11
2023-04-16T13:24:02.393Z,66.16
2023-04-16T13:26:33.469Z,66.32
2023-04-16T13:29:04.934Z,66.27
2023-04-16T13:31:35.994Z,66.18
2023-04-16T13:34:07.207Z,66.34
2023-04-16T13:36:38.659Z,66.33
2023-04-16T13:39:12.835Z,66.66
2023-04-16T13:41:46.297Z,66.39
2023-04-16T13:44:17.446Z,66.57
2023-04-16T13:46:48.905Z,66.37
2023-04-16T13:49:19.960Z,66.81
2023-04-16T13:51:51.658Z,66.69
2023-04-16T13:54:22.873Z,66.87
2023-04-16T13:56:53.955Z,66.35
2023-04-16T13:59:24.973Z,66.95
2023-04-16T14:01:59.227Z,66.96
2023-04-16T14:04:30.066Z,66.84
2023-04-16T14:07:01.461Z,66.76
2023-04-16T14:09:32.681Z,66.51
2023-04-16T14:12:03.979Z,66.45
2023-04-16T14:14:34.964Z,66.14
2023-04-16T14:17:05.966Z,66.36
2023-04-16T14:19:37.276Z,66.42
2023-04-16T14:22:09.256Z,66.51
2023-04-16T14:24:40.494Z,67.89
2023-04-16T14:27:12.897Z,67.21
2023-04-16T14:29:45.425Z,67.54
2023-04-16T14:32:17.642Z,67.15
2023-04-16T14:34:48.610Z,67.23
2023-04-16T14:37:19.948Z,67.44
2023-04-16T14:39:51.551Z,67.10
2023-04-16T14:42:23.434Z,67.06
2023-04-16T14:44:59.420Z,67.10
2023-04-16T14:47:31.126Z,66.89
2023-04-16T14:50:02.915Z,67.23
2023-04-16T14:52:34.634Z,67.75
2023-04-16T14:55:06.860Z,67.58
2023-04-16T14:57:39.462Z,67.63
2023-04-16T15:00:11.974Z,67.79
2023-04-16T15:02:42.948Z,68.16
2023-04-16T15:05:14.401Z,68.33
2023-04-16T15:07:45.550Z,68.67
2023-04-16T15:10:18.594Z,68.74
2023-04-16T15:12:49.806Z,68.67
2023-04-16T15:15:21.022Z,68.71
2023-04-16T15:17:53.042Z,68.59
2023-04-16T15:20:24.037Z,68.61
2023-04-16T15:22:55.033Z,68.67
2023-04-16T15:25:26.695Z,68.75
2023-04-16T15:27:57.538Z,68.61
2023-04-16T15:30:28.514Z,68.72
2023-04-16T15:32:59.776Z,68.43
2023-04-16T15:35:30.945Z,68.46
2023-04-16T15:38:02.567Z,68.00
2023-04-16T15:40:34.464Z,68.00
2023-04-16T15:43:06.064Z,68.15
2023-04-16T15:45:37.002Z,67.94
2023-04-16T15:48:08.369Z,68.20
2023-04-16T15:50:40.172Z,68.30
2023-04-16T15:53:12.144Z,68.33
2023-04-16T15:55:44.199Z,68.52
2023-04-16T15:58:15.129Z,68.42
2023-04-16T16:00:50.814Z,68.61
2023-04-16T16:03:23.327Z,68.33
2023-04-16T16:05:54.822Z,68.53
2023-04-16T16:08:26.054Z,67.91
2023-04-16T16:10:57.504Z,67.25
2023-04-16T16:13:29.089Z,67.54
2023-04-16T16:16:00.150Z,67.74
2023-04-16T16:18:31.652Z,67.73
2023-04-16T16:21:02.506Z,67.09
2023-04-16T16:23:34.071Z,67.02
2023-04-16T16:26:09.364Z,66.66
2023-04-16T16:28:42.102Z,66.81
2023-04-16T16:31:13.608Z,66.52
2023-04-16T16:33:44.425Z,66.81
2023-04-16T16:36:15.617Z,67.36
2023-04-16T16:39:05.398Z,67.26
2023-04-16T16:41:42.855Z,67.49
2023-04-16T16:44:13.617Z,67.65
2023-04-16T16:46:45.050Z,67.72
2023-04-16T16:49:17.549Z,67.81
2023-04-16T16:51:49.605Z,67.89
2023-04-16T16:54:21.308Z,68.03
2023-04-16T16:56:55.687Z,68.23
2023-04-16T16:59:26.834Z,67.89
2023-04-16T17:01:57.695Z,68.13
2023-04-16T17:04:28.892Z,68.22
2023-04-16T17:07:01.301Z,67.94
2023-04-16T17:09:32.376Z,68.00
2023-04-16T17:12:04.138Z,67.43
2023-04-16T17:14:35.861Z,67.63
2023-04-16T17:17:06.702Z,67.57
2023-04-16T17:19:37.984Z,67.57
2023-04-16T17:22:09.808Z,67.58
2023-04-16T17:24:40.883Z,67.32
2023-04-16T17:27:11.937Z,67.63
2023-04-16T17:29:42.900Z,67.91
2023-04-16T17:32:14.216Z,67.98
2023-04-16T17:34:45.418Z,68.02
2023-04-16T17:37:16.637Z,67.77
2023-04-16T17:39:47.661Z,67.17
2023-04-16T17:42:18.674Z,67.28
2023-04-16T17:44:50.145Z,66.92
2023-04-16T17:47:21.149Z,66.85
2023-04-16T17:49:58.333Z,66.96
2023-04-16T17:52:29.762Z,67.00
2023-04-16T17:55:04.870Z,67.06
2023-04-16T17:57:36.430Z,67.33
2023-04-16T18:00:12.790Z,67.40
2023-04-16T18:02:44.738Z,67.12
2023-04-16T18:05:16.132Z,66.92
2023-04-16T18:07:48.182Z,66.81
2023-04-16T18:10:19.165Z,66.59
2023-04-16T18:12:49.961Z,66.61
2023-04-16T18:15:23.679Z,66.67
2023-04-16T18:17:55.491Z,66.50
2023-04-16T18:20:26.207Z,66.65
2023-04-16T18:22:57.289Z,66.90
2023-04-16T18:25:34.521Z,66.91
2023-04-16T18:28:07.347Z,67.06
2023-04-16T18:30:40.368Z,67.13
2023-04-16T18:33:42.776Z,67.36
2023-04-16T18:36:03.532Z,67.56
2023-04-16T18:38:36.960Z,67.88
2023-04-16T18:41:18.661Z,68.08
2023-04-16T18:43:49.720Z,67.95
2023-04-16T18:46:20.631Z,67.94
2023-04-16T18:48:51.728Z,67.86
2023-04-16T18:51:23.105Z,67.45
2023-04-16T18:53:54.258Z,67.28
2023-04-16T18:56:25.271Z,67.38
2023-04-16T18:58:56.242Z,67.37
2023-04-16T19:01:27.385Z,67.37
2023-04-16T19:03:58.224Z,67.66
2023-04-16T19:06:30.192Z,67.86
2023-04-16T19:09:01.263Z,67.73
2023-04-16T19:11:33.187Z,67.70
2023-04-16T19:14:04.278Z,68.00
2023-04-16T19:16:36.114Z,67.83
2023-04-16T19:19:07.262Z,67.90
2023-04-16T19:21:41.017Z,67.93
2023-04-16T19:24:12.504Z,67.91
2023-04-16T19:26:43.792Z,67.59
2023-04-16T19:29:15.134Z,67.71
2023-04-16T19:31:50.881Z,67.40
2023-04-16T19:34:22.232Z,67.74
2023-04-16T19:36:53.169Z,67.44
2023-04-16T19:39:27.264Z,67.70
2023-04-16T19:41:58.903Z,67.63
2023-04-16T19:44:30.717Z,67.37
2023-04-16T19:47:02.336Z,67.43
2023-04-16T19:49:35.732Z,67.54
2023-04-16T19:52:07.036Z,67.74
2023-04-16T19:54:38.703Z,67.86
2023-04-16T19:57:12.202Z,67.73
2023-04-16T19:59:43.709Z,67.69
2023-04-16T20:02:14.870Z,67.49
2023-04-16T20:04:45.799Z,67.87
2023-04-16T20:07:16.814Z,68.03
2023-04-16T20:09:48.174Z,68.14
2023-04-16T20:12:19.654Z,68.00
2023-04-16T20:14:51.318Z,68.14
2023-04-16T20:17:22.160Z,68.08
2023-04-16T20:19:53.512Z,68.18
2023-04-16T20:22:25.845Z,68.48
2023-04-16T20:24:57.642Z,68.48
2023-04-16T20:27:28.435Z,68.40
2023-04-16T20:30:00.628Z,68.58
2023-04-16T20:32:49.754Z,68.76
2023-04-16T20:35:20.857Z,68.49
2023-04-16T20:37:51.709Z,68.63
2023-04-16T20:40:25.074Z,68.85
2023-04-16T20:42:57.645Z,68.84
2023-04-16T20:45:33.290Z,69.17
2023-04-16T20:48:04.414Z,68.72
2023-04-16T20:50:38.574Z,69.19
2023-04-16T20:53:13.061Z,69.02
2023-04-16T20:55:47.788Z,69.19
2023-04-16T20:58:19.084Z,69.35
2023-04-16T21:00:54.300Z,69.36
2023-04-16T21:03:26.305Z,69.37
2023-04-16T21:05:57.887Z,69.67
2023-04-16T21:08:28.767Z,69.96
2023-04-16T21:10:59.907Z,69.86
2023-04-16T21:13:31.585Z,70.05
2023-04-16T21:16:02.446Z,69.92
2023-04-16T21:18:33.870Z,70.41
2023-04-16T21:21:05.862Z,70.38
2023-04-16T21:23:37.329Z,70.14
2023-04-16T21:26:08.567Z,70.29
2023-04-16T21:28:39.884Z,70.57
2023-04-16T21:31:10.889Z,70.54
2023-04-16T21:33:42.251Z,70.51
2023-04-16T21:36:13.408Z,70.61
2023-04-16T21:38:44.541Z,70.38
2023-04-16T21:41:15.377Z,70.67
2023-04-16T21:43:46.283Z,70.73
2023-04-16T21:46:17.411Z,70.90
2023-04-16T21:48:49.643Z,71.14
2023-04-16T21:51:21.147Z,71.12
2023-04-16T21:53:55.223Z,71.15
2023-04-16T21:56:27.246Z,71.15
2023-04-16T21:58:58.332Z,71.29
2023-04-16T22:01:29.671Z,71.15
2023-04-16T22:04:03.058Z,71.47
2023-04-16T22:06:35.046Z,71.66
2023-04-16T22:09:07.834Z,71.21
2023-04-16T22:11:39.567Z,71.02
2023-04-16T22:14:10.931Z,70.92
2023-04-16T22:16:43.016Z,70.72
2023-04-16T22:19:15.233Z,70.31
2023-04-16T22:21:46.448Z,70.42
2023-04-16T22:24:18.057Z,70.67
2023-04-16T22:26:49.179Z,70.41
2023-04-16T22:29:20.438Z,70.46
2023-04-16T22:31:52.846Z,70.27
2023-04-16T22:34:24.878Z,70.10
2023-04-16T22:36:57.376Z,70.65
2023-04-16T22:39:29.834Z,70.56
2023-04-16T22:42:01.928Z,70.77
2023-04-16T22:44:33.200Z,70.65
2023-04-16T22:47:05.490Z,70.87
2023-04-16T22:49:46.929Z,70.79
2023-04-16T22:52:17.694Z,70.77
2023-04-16T22:54:48.576Z,71.21
2023-04-16T22:57:22.121Z,71.06
2023-04-16T22:59:54.180Z,70.70
2023-04-16T23:02:28.682Z,70.86
2023-04-16T23:05:01.939Z,71.33
2023-04-16T23:07:33.038Z,71.07
2023-04-16T23:10:05.250Z,71.40
2023-04-16T23:12:38.311Z,71.82
2023-04-16T23:15:10.394Z,72.12
2023-04-16T23:17:41.472Z,71.68
2023-04-16T23:20:14.450Z,72.15
2023-04-16T23:22:46.057Z,72.22
2023-04-16T23:25:19.401Z,72.04
2023-04-16T23:27:50.999Z,72.02
2023-04-16T23:30:24.909Z,71.85
2023-04-16T23:32:56.022Z,72.00
2023-04-16T23:35:27.543Z,71.60
2023-04-16T23:37:58.725Z,71.18
2023-04-16T23:40:29.525Z,71.03
2023-04-16T23:43:00.743Z,70.68
2023-04-16T23:45:31.754Z,71.00
2023-04-16T23:48:03.283Z,70.98
2023-04-16T23:50:38.018Z,70.45
2023-04-16T23:53:08.767Z,69.53
2023-04-16T23:55:42.979Z,69.38
2023-04-16T23:58:14.411Z,69.04
